sensor_id;sensor_type;location;lat;lon;timestamp;P1;durP1;ratioP1;P2;durP2;ratioP2
7587;SDS011;3835;48.850;8.938;2022-10-19T00:01:29;18.53;;;17.13;;
7587;SDS011;3835;48.850;8.938;2022-10-19T00:03:56;17.23;;;15.83;;
7587;SDS011;3835;48.850;8.938;2022-10-19T00:06:25;18.33;;;14.63;;
7587;SDS011;3835;48.850;8.938;2022-10-19T00:08:57;17.43;;;15.93;;
7587;SDS011;3835;48.850;8.938;2022-10-19T00:11:25;17.93;;;16.33;;
7587;SDS011;3835;48.850;8.938;2022-10-19T00:13:54;17.23;;;15.87;;
7587;SDS011;3835;48.850;8.938;2022-10-19T00:16:22;17.50;;;15.67;;
7587;SDS011;3835;48.850;8.938;2022-10-19T00:18:53;17.67;;;16.27;;
7587;SDS011;3835;48.850;8.938;2022-10-19T00:21:21;18.13;;;16.53;;
7587;SDS011;3835;48.850;8.938;2022-10-19T00:23:48;18.77;;;16.77;;
7587;SDS011;3835;48.850;8.938;2022-10-19T00:26:16;17.57;;;15.87;;
7587;SDS011;3835;48.850;8.938;2022-10-19T00:28:45;19.20;;;17.13;;
7587;SDS011;3835;48.850;8.938;2022-10-19T00:31:13;18.53;;;16.87;;
7587;SDS011;3835;48.850;8.938;2022-10-19T00:33:42;18.03;;;16.43;;
7587;SDS011;3835;48.850;8.938;2022-10-19T00:36:14;17.47;;;15.77;;
7587;SDS011;3835;48.850;8.938;2022-10-19T00:38:42;18.33;;;16.97;;
7587;SDS011;3835;48.850;8.938;2022-10-19T00:41:09;19.03;;;17.27;;
7587;SDS011;3835;48.850;8.938;2022-10-19T00:43:50;18.80;;;17.20;;
7587;SDS011;3835;48.850;8.938;2022-10-19T00:46:19;16.97;;;15.37;;
7587;SDS011;3835;48.850;8.938;2022-10-19T00:48:46;19.10;;;17.43;;
7587;SDS011;3835;48.850;8.938;2022-10-19T00:51:13;19.07;;;17.47;;
7587;SDS011;3835;48.850;8.938;2022-10-19T00:53:40;18.90;;;16.53;;
7587;SDS011;3835;48.850;8.938;2022-10-19T00:56:08;17.93;;;16.43;;
7587;SDS011;3835;48.850;8.938;2022-10-19T00:58:38;16.03;;;14.90;;
7587;SDS011;3835;48.850;8.938;2022-10-19T01:01:07;17.03;;;15.63;;
7587;SDS011;3835;48.850;8.938;2022-10-19T01:03:36;17.60;;;16.20;;
7587;SDS011;3835;48.850;8.938;2022-10-19T01:06:04;16.23;;;14.83;;
7587;SDS011;3835;48.850;8.938;2022-10-19T01:08:32;16.57;;;15.20;;
7587;SDS011;3835;48.850;8.938;2022-10-19T01:11:01;19.10;;;17.37;;
7587;SDS011;3835;48.850;8.938;2022-10-19T01:13:42;44.23;;;18.20;;
7587;SDS011;3835;48.850;8.938;2022-10-19T01:16:19;18.73;;;17.00;;
7587;SDS011;3835;48.850;8.938;2022-10-19T01:18:53;18.13;;;16.30;;
7587;SDS011;3835;48.850;8.938;2022-10-19T01:21:28;19.57;;;17.67;;
7587;SDS011;3835;48.850;8.938;2022-10-19T01:27:04;19.23;;;17.27;;
7587;SDS011;3835;48.850;8.938;2022-10-19T01:29:57;18.17;;;16.67;;
7587;SDS011;3835;48.850;8.938;2022-10-19T01:32:28;19.67;;;17.90;;
7587;SDS011;3835;48.850;8.938;2022-10-19T01:35:03;21.03;;;18.93;;
7587;SDS011;3835;48.850;8.938;2022-10-19T01:37:37;19.80;;;18.13;;
7587;SDS011;3835;48.850;8.938;2022-10-19T01:40:08;19.07;;;17.17;;
7587;SDS011;3835;48.850;8.938;2022-10-19T01:42:39;19.97;;;17.90;;
7587;SDS011;3835;48.850;8.938;2022-10-19T01:45:13;19.50;;;17.90;;
7587;SDS011;3835;48.850;8.938;2022-10-19T01:47:46;18.73;;;17.13;;
7587;SDS011;3835;48.850;8.938;2022-10-19T01:50:16;19.83;;;18.10;;
7587;SDS011;3835;48.850;8.938;2022-10-19T01:52:49;19.87;;;18.07;;
7587;SDS011;3835;48.850;8.938;2022-10-19T01:55:16;20.73;;;18.97;;
7587;SDS011;3835;48.850;8.938;2022-10-19T01:57:45;17.57;;;16.00;;
7587;SDS011;3835;48.850;8.938;2022-10-19T02:00:17;19.77;;;17.33;;
7587;SDS011;3835;48.850;8.938;2022-10-19T02:02:47;18.03;;;16.20;;
7587;SDS011;3835;48.850;8.938;2022-10-19T02:05:17;22.87;;;18.57;;
7587;SDS011;3835;48.850;8.938;2022-10-19T02:07:47;24.77;;;17.97;;
7587;SDS011;3835;48.850;8.938;2022-10-19T02:10:18;23.10;;;17.07;;
7587;SDS011;3835;48.850;8.938;2022-10-19T02:12:45;23.07;;;17.63;;
7587;SDS011;3835;48.850;8.938;2022-10-19T02:15:14;21.30;;;19.10;;
7587;SDS011;3835;48.850;8.938;2022-10-19T02:17:47;22.03;;;18.43;;
7587;SDS011;3835;48.850;8.938;2022-10-19T02:20:19;23.13;;;18.37;;
7587;SDS011;3835;48.850;8.938;2022-10-19T02:22:46;25.60;;;18.87;;
7587;SDS011;3835;48.850;8.938;2022-10-19T02:25:13;23.13;;;19.13;;
7587;SDS011;3835;48.850;8.938;2022-10-19T02:30:33;23.47;;;19.53;;
7587;SDS011;3835;48.850;8.938;2022-10-19T02:33:00;24.37;;;18.57;;
7587;SDS011;3835;48.850;8.938;2022-10-19T02:35:27;24.10;;;17.97;;
7587;SDS011;3835;48.850;8.938;2022-10-19T02:37:55;31.00;;;18.60;;
7587;SDS011;3835;48.850;8.938;2022-10-19T02:40:26;27.77;;;19.33;;
7587;SDS011;3835;48.850;8.938;2022-10-19T02:42:59;27.87;;;18.97;;
7587;SDS011;3835;48.850;8.938;2022-10-19T02:45:29;25.43;;;19.83;;
7587;SDS011;3835;48.850;8.938;2022-10-19T02:47:59;24.63;;;19.53;;
7587;SDS011;3835;48.850;8.938;2022-10-19T02:50:30;29.47;;;19.57;;
7587;SDS011;3835;48.850;8.938;2022-10-19T02:52:57;24.50;;;19.97;;
7587;SDS011;3835;48.850;8.938;2022-10-19T02:55:24;26.57;;;20.37;;
7587;SDS011;3835;48.850;8.938;2022-10-19T02:57:51;33.23;;;19.80;;
7587;SDS011;3835;48.850;8.938;2022-10-19T03:00:18;28.13;;;18.63;;
7587;SDS011;3835;48.850;8.938;2022-10-19T03:02:45;22.87;;;18.83;;
7587;SDS011;3835;48.850;8.938;2022-10-19T03:05:13;20.57;;;18.37;;
7587;SDS011;3835;48.850;8.938;2022-10-19T03:07:40;25.47;;;20.10;;
7587;SDS011;3835;48.850;8.938;2022-10-19T03:10:07;23.03;;;19.10;;
7587;SDS011;3835;48.850;8.938;2022-10-19T03:12:34;31.00;;;20.03;;
7587;SDS011;3835;48.850;8.938;2022-10-19T03:15:02;29.03;;;18.70;;
7587;SDS011;3835;48.850;8.938;2022-10-19T03:17:29;34.17;;;20.70;;
7587;SDS011;3835;48.850;8.938;2022-10-19T03:19:56;26.67;;;18.73;;
7587;SDS011;3835;48.850;8.938;2022-10-19T03:22:24;21.73;;;18.20;;
7587;SDS011;3835;48.850;8.938;2022-10-19T03:24:51;22.80;;;20.07;;
7587;SDS011;3835;48.850;8.938;2022-10-19T03:27:17;24.87;;;18.70;;
7587;SDS011;3835;48.850;8.938;2022-10-19T03:29:44;25.03;;;17.40;;
7587;SDS011;3835;48.850;8.938;2022-10-19T03:32:11;27.67;;;18.87;;
7587;SDS011;3835;48.850;8.938;2022-10-19T03:34:38;25.53;;;17.63;;
7587;SDS011;3835;48.850;8.938;2022-10-19T03:37:06;28.30;;;19.20;;
7587;SDS011;3835;48.850;8.938;2022-10-19T03:40:34;24.40;;;20.10;;
7587;SDS011;3835;48.850;8.938;2022-10-19T03:43:01;22.80;;;19.77;;
7587;SDS011;3835;48.850;8.938;2022-10-19T03:45:28;20.27;;;18.07;;
7587;SDS011;3835;48.850;8.938;2022-10-19T03:47:54;23.07;;;20.60;;
7587;SDS011;3835;48.850;8.938;2022-10-19T03:50:21;28.50;;;21.97;;
7587;SDS011;3835;48.850;8.938;2022-10-19T03:52:49;61.30;;;22.57;;
7587;SDS011;3835;48.850;8.938;2022-10-19T03:55:16;33.40;;;20.57;;
7587;SDS011;3835;48.850;8.938;2022-10-19T03:57:44;25.37;;;19.87;;
7587;SDS011;3835;48.850;8.938;2022-10-19T04:00:11;25.27;;;20.63;;
7587;SDS011;3835;48.850;8.938;2022-10-19T04:02:39;25.60;;;23.03;;
7587;SDS011;3835;48.850;8.938;2022-10-19T04:05:06;25.93;;;20.10;;
7587;SDS011;3835;48.850;8.938;2022-10-19T04:07:33;22.07;;;19.13;;
7587;SDS011;3835;48.850;8.938;2022-10-19T04:10:00;26.93;;;20.20;;
7587;SDS011;3835;48.850;8.938;2022-10-19T04:12:27;24.40;;;18.70;;
7587;SDS011;3835;48.850;8.938;2022-10-19T04:14:55;26.03;;;20.20;;
7587;SDS011;3835;48.850;8.938;2022-10-19T04:17:21;21.00;;;17.93;;
7587;SDS011;3835;48.850;8.938;2022-10-19T04:19:48;22.87;;;18.73;;
7587;SDS011;3835;48.850;8.938;2022-10-19T04:22:15;21.33;;;17.67;;
7587;SDS011;3835;48.850;8.938;2022-10-19T04:24:42;24.37;;;19.30;;
7587;SDS011;3835;48.850;8.938;2022-10-19T04:27:08;23.37;;;18.63;;
7587;SDS011;3835;48.850;8.938;2022-10-19T04:29:35;27.50;;;22.37;;
7587;SDS011;3835;48.850;8.938;2022-10-19T04:32:03;21.30;;;18.77;;
7587;SDS011;3835;48.850;8.938;2022-10-19T04:34:30;22.43;;;19.90;;
7587;SDS011;3835;48.850;8.938;2022-10-19T04:36:57;29.83;;;20.63;;
7587;SDS011;3835;48.850;8.938;2022-10-19T04:39:25;23.93;;;19.40;;
7587;SDS011;3835;48.850;8.938;2022-10-19T04:41:52;24.83;;;20.10;;
7587;SDS011;3835;48.850;8.938;2022-10-19T04:44:18;23.23;;;19.93;;
7587;SDS011;3835;48.850;8.938;2022-10-19T04:46:45;25.70;;;21.20;;
7587;SDS011;3835;48.850;8.938;2022-10-19T04:49:13;26.37;;;19.47;;
7587;SDS011;3835;48.850;8.938;2022-10-19T04:51:40;27.87;;;22.00;;
7587;SDS011;3835;48.850;8.938;2022-10-19T04:54:07;26.40;;;20.73;;
7587;SDS011;3835;48.850;8.938;2022-10-19T04:56:34;28.00;;;19.60;;
7587;SDS011;3835;48.850;8.938;2022-10-19T04:59:00;29.97;;;19.37;;
7587;SDS011;3835;48.850;8.938;2022-10-19T05:01:28;25.00;;;19.93;;
7587;SDS011;3835;48.850;8.938;2022-10-19T05:03:56;29.60;;;20.80;;
7587;SDS011;3835;48.850;8.938;2022-10-19T05:06:26;28.33;;;20.23;;
7587;SDS011;3835;48.850;8.938;2022-10-19T05:08:53;25.20;;;19.17;;
7587;SDS011;3835;48.850;8.938;2022-10-19T05:11:20;26.23;;;19.63;;
7587;SDS011;3835;48.850;8.938;2022-10-19T05:13:48;24.20;;;20.60;;
7587;SDS011;3835;48.850;8.938;2022-10-19T05:16:16;27.37;;;19.77;;
7587;SDS011;3835;48.850;8.938;2022-10-19T05:18:45;28.40;;;20.20;;
7587;SDS011;3835;48.850;8.938;2022-10-19T05:21:13;22.03;;;19.67;;
7587;SDS011;3835;48.850;8.938;2022-10-19T05:23:41;23.53;;;18.70;;
7587;SDS011;3835;48.850;8.938;2022-10-19T05:26:09;33.30;;;19.00;;
7587;SDS011;3835;48.850;8.938;2022-10-19T05:28:37;26.37;;;19.10;;
7587;SDS011;3835;48.850;8.938;2022-10-19T05:31:05;35.60;;;18.13;;
7587;SDS011;3835;48.850;8.938;2022-10-19T05:33:33;41.90;;;19.07;;
7587;SDS011;3835;48.850;8.938;2022-10-19T05:36:08;45.60;;;17.63;;
7587;SDS011;3835;48.850;8.938;2022-10-19T05:38:37;29.27;;;18.77;;
7587;SDS011;3835;48.850;8.938;2022-10-19T05:41:05;34.57;;;19.83;;
7587;SDS011;3835;48.850;8.938;2022-10-19T05:43:32;45.47;;;19.97;;
7587;SDS011;3835;48.850;8.938;2022-10-19T05:46:01;26.53;;;19.60;;
7587;SDS011;3835;48.850;8.938;2022-10-19T05:48:28;29.60;;;18.90;;
7587;SDS011;3835;48.850;8.938;2022-10-19T05:50:57;28.43;;;18.90;;
7587;SDS011;3835;48.850;8.938;2022-10-19T05:53:25;23.63;;;19.87;;
7587;SDS011;3835;48.850;8.938;2022-10-19T05:55:52;30.20;;;18.93;;
7587;SDS011;3835;48.850;8.938;2022-10-19T05:58:20;42.33;;;18.53;;
7587;SDS011;3835;48.850;8.938;2022-10-19T06:00:49;28.83;;;19.40;;
7587;SDS011;3835;48.850;8.938;2022-10-19T06:03:17;29.03;;;17.17;;
7587;SDS011;3835;48.850;8.938;2022-10-19T06:05:43;46.60;;;18.93;;
7587;SDS011;3835;48.850;8.938;2022-10-19T06:08:10;40.90;;;19.10;;
7587;SDS011;3835;48.850;8.938;2022-10-19T06:10:37;26.27;;;17.80;;
7587;SDS011;3835;48.850;8.938;2022-10-19T06:13:04;22.10;;;18.67;;
7587;SDS011;3835;48.850;8.938;2022-10-19T06:15:33;37.37;;;19.27;;
7587;SDS011;3835;48.850;8.938;2022-10-19T06:18:00;33.77;;;19.33;;
7587;SDS011;3835;48.850;8.938;2022-10-19T06:20:28;30.23;;;19.17;;
7587;SDS011;3835;48.850;8.938;2022-10-19T06:22:55;21.30;;;18.07;;
7587;SDS011;3835;48.850;8.938;2022-10-19T06:25:22;22.87;;;18.70;;
7587;SDS011;3835;48.850;8.938;2022-10-19T06:27:49;32.33;;;17.93;;
7587;SDS011;3835;48.850;8.938;2022-10-19T06:30:16;30.10;;;17.90;;
7587;SDS011;3835;48.850;8.938;2022-10-19T06:32:44;36.20;;;18.73;;
7587;SDS011;3835;48.850;8.938;2022-10-19T06:35:10;20.23;;;18.40;;
7587;SDS011;3835;48.850;8.938;2022-10-19T06:37:37;26.57;;;17.93;;
7587;SDS011;3835;48.850;8.938;2022-10-19T06:40:04;29.07;;;17.90;;
7587;SDS011;3835;48.850;8.938;2022-10-19T06:42:32;21.57;;;18.83;;
7587;SDS011;3835;48.850;8.938;2022-10-19T06:44:59;23.60;;;18.93;;
7587;SDS011;3835;48.850;8.938;2022-10-19T06:47:25;24.30;;;17.70;;
7587;SDS011;3835;48.850;8.938;2022-10-19T06:49:58;36.97;;;20.20;;
7587;SDS011;3835;48.850;8.938;2022-10-19T06:52:25;38.60;;;18.43;;
7587;SDS011;3835;48.850;8.938;2022-10-19T06:54:51;21.93;;;18.03;;
7587;SDS011;3835;48.850;8.938;2022-10-19T06:57:18;36.97;;;17.97;;
7587;SDS011;3835;48.850;8.938;2022-10-19T06:59:45;43.13;;;20.97;;
7587;SDS011;3835;48.850;8.938;2022-10-19T07:02:12;28.23;;;18.97;;
7587;SDS011;3835;48.850;8.938;2022-10-19T07:04:38;25.87;;;20.47;;
7587;SDS011;3835;48.850;8.938;2022-10-19T07:07:06;34.40;;;19.93;;
7587;SDS011;3835;48.850;8.938;2022-10-19T07:09:33;27.00;;;20.07;;
7587;SDS011;3835;48.850;8.938;2022-10-19T07:12:00;29.70;;;19.07;;
7587;SDS011;3835;48.850;8.938;2022-10-19T07:14:27;30.93;;;20.57;;
7587;SDS011;3835;48.850;8.938;2022-10-19T07:16:54;25.43;;;20.53;;
7587;SDS011;3835;48.850;8.938;2022-10-19T07:19:24;35.30;;;22.70;;
7587;SDS011;3835;48.850;8.938;2022-10-19T07:21:51;31.57;;;20.77;;
7587;SDS011;3835;48.850;8.938;2022-10-19T07:24:19;30.67;;;20.57;;
7587;SDS011;3835;48.850;8.938;2022-10-19T07:26:46;26.37;;;20.23;;
7587;SDS011;3835;48.850;8.938;2022-10-19T07:29:13;26.07;;;21.50;;
7587;SDS011;3835;48.850;8.938;2022-10-19T07:31:40;28.37;;;21.87;;
7587;SDS011;3835;48.850;8.938;2022-10-19T07:34:09;27.50;;;24.20;;
7587;SDS011;3835;48.850;8.938;2022-10-19T07:36:37;28.87;;;20.67;;
7587;SDS011;3835;48.850;8.938;2022-10-19T07:39:08;26.17;;;21.53;;
7587;SDS011;3835;48.850;8.938;2022-10-19T07:41:38;26.43;;;20.00;;
7587;SDS011;3835;48.850;8.938;2022-10-19T07:44:05;24.13;;;21.40;;
7587;SDS011;3835;48.850;8.938;2022-10-19T07:46:31;27.90;;;21.67;;
7587;SDS011;3835;48.850;8.938;2022-10-19T07:49:01;24.50;;;20.17;;
7587;SDS011;3835;48.850;8.938;2022-10-19T07:51:29;24.70;;;20.53;;
7587;SDS011;3835;48.850;8.938;2022-10-19T07:53:56;22.93;;;20.57;;
7587;SDS011;3835;48.850;8.938;2022-10-19T07:56:24;23.00;;;20.93;;
7587;SDS011;3835;48.850;8.938;2022-10-19T07:58:54;25.43;;;22.83;;
7587;SDS011;3835;48.850;8.938;2022-10-19T08:01:23;21.80;;;19.70;;
7587;SDS011;3835;48.850;8.938;2022-10-19T08:03:51;21.57;;;19.37;;
7587;SDS011;3835;48.850;8.938;2022-10-19T08:06:19;21.77;;;19.57;;
7587;SDS011;3835;48.850;8.938;2022-10-19T08:08:47;19.50;;;17.83;;
7587;SDS011;3835;48.850;8.938;2022-10-19T08:11:15;18.77;;;17.37;;
7587;SDS011;3835;48.850;8.938;2022-10-19T08:13:43;17.83;;;16.23;;
7587;SDS011;3835;48.850;8.938;2022-10-19T08:16:20;20.17;;;18.50;;
7587;SDS011;3835;48.850;8.938;2022-10-19T08:18:49;22.57;;;20.67;;
7587;SDS011;3835;48.850;8.938;2022-10-19T08:21:16;18.00;;;16.40;;
7587;SDS011;3835;48.850;8.938;2022-10-19T08:23:43;20.93;;;19.17;;
7587;SDS011;3835;48.850;8.938;2022-10-19T08:26:10;18.07;;;16.60;;
7587;SDS011;3835;48.850;8.938;2022-10-19T08:28:37;19.70;;;18.20;;
7587;SDS011;3835;48.850;8.938;2022-10-19T08:31:10;20.60;;;19.00;;
7587;SDS011;3835;48.850;8.938;2022-10-19T08:33:39;19.30;;;17.40;;
7587;SDS011;3835;48.850;8.938;2022-10-19T08:36:07;20.50;;;18.80;;
7587;SDS011;3835;48.850;8.938;2022-10-19T08:38:35;19.87;;;18.20;;
7587;SDS011;3835;48.850;8.938;2022-10-19T08:41:04;20.67;;;19.00;;
7587;SDS011;3835;48.850;8.938;2022-10-19T08:43:40;17.97;;;16.57;;
7587;SDS011;3835;48.850;8.938;2022-10-19T08:46:15;19.67;;;18.27;;
7587;SDS011;3835;48.850;8.938;2022-10-19T08:48:47;18.47;;;17.17;;
7587;SDS011;3835;48.850;8.938;2022-10-19T08:51:14;18.43;;;16.63;;
7587;SDS011;3835;48.850;8.938;2022-10-19T08:53:43;21.13;;;19.47;;
7587;SDS011;3835;48.850;8.938;2022-10-19T08:56:17;20.27;;;18.27;;
7587;SDS011;3835;48.850;8.938;2022-10-19T08:58:52;23.40;;;21.37;;
7587;SDS011;3835;48.850;8.938;2022-10-19T09:01:35;20.87;;;19.07;;
7587;SDS011;3835;48.850;8.938;2022-10-19T09:04:09;19.63;;;17.80;;
7587;SDS011;3835;48.850;8.938;2022-10-19T09:06:44;21.03;;;19.13;;
7587;SDS011;3835;48.850;8.938;2022-10-19T09:09:17;19.33;;;17.63;;
7587;SDS011;3835;48.850;8.938;2022-10-19T09:11:46;19.97;;;18.10;;
7587;SDS011;3835;48.850;8.938;2022-10-19T09:14:15;21.43;;;19.73;;
7587;SDS011;3835;48.850;8.938;2022-10-19T09:16:46;19.57;;;17.97;;
7587;SDS011;3835;48.850;8.938;2022-10-19T09:19:17;19.83;;;18.03;;
7587;SDS011;3835;48.850;8.938;2022-10-19T09:21:50;22.93;;;20.83;;
7587;SDS011;3835;48.850;8.938;2022-10-19T09:24:25;20.57;;;18.97;;
7587;SDS011;3835;48.850;8.938;2022-10-19T09:26:55;20.13;;;18.43;;
7587;SDS011;3835;48.850;8.938;2022-10-19T09:29:24;19.17;;;17.57;;
7587;SDS011;3835;48.850;8.938;2022-10-19T09:31:55;22.13;;;20.13;;
7587;SDS011;3835;48.850;8.938;2022-10-19T09:34:28;18.63;;;16.83;;
7587;SDS011;3835;48.850;8.938;2022-10-19T09:36:58;19.40;;;17.73;;
7587;SDS011;3835;48.850;8.938;2022-10-19T09:39:26;19.50;;;17.87;;
7587;SDS011;3835;48.850;8.938;2022-10-19T09:41:55;21.33;;;19.70;;
7587;SDS011;3835;48.850;8.938;2022-10-19T09:44:24;21.30;;;19.60;;
7587;SDS011;3835;48.850;8.938;2022-10-19T09:46:53;18.10;;;16.83;;
7587;SDS011;3835;48.850;8.938;2022-10-19T09:49:39;16.60;;;15.30;;
7587;SDS011;3835;48.850;8.938;2022-10-19T09:52:20;18.57;;;16.80;;
7587;SDS011;3835;48.850;8.938;2022-10-19T09:54:49;19.77;;;18.47;;
7587;SDS011;3835;48.850;8.938;2022-10-19T09:57:25;19.93;;;18.47;;
7587;SDS011;3835;48.850;8.938;2022-10-19T09:59:52;23.07;;;21.43;;
7587;SDS011;3835;48.850;8.938;2022-10-19T10:02:20;19.10;;;17.33;;
7587;SDS011;3835;48.850;8.938;2022-10-19T10:04:55;22.83;;;21.27;;
7587;SDS011;3835;48.850;8.938;2022-10-19T10:07:31;17.50;;;16.20;;
7587;SDS011;3835;48.850;8.938;2022-10-19T10:10:00;18.00;;;16.80;;
7587;SDS011;3835;48.850;8.938;2022-10-19T10:12:27;19.60;;;18.13;;
7587;SDS011;3835;48.850;8.938;2022-10-19T10:14:54;19.10;;;17.60;;
7587;SDS011;3835;48.850;8.938;2022-10-19T10:17:21;22.07;;;20.60;;
7587;SDS011;3835;48.850;8.938;2022-10-19T10:20:03;16.70;;;15.40;;
7587;SDS011;3835;48.850;8.938;2022-10-19T10:22:52;15.90;;;14.57;;
7587;SDS011;3835;48.850;8.938;2022-10-19T10:25:24;18.43;;;17.07;;
7587;SDS011;3835;48.850;8.938;2022-10-19T10:27:53;19.53;;;18.07;;
7587;SDS011;3835;48.850;8.938;2022-10-19T10:30:26;19.00;;;17.40;;
7587;SDS011;3835;48.850;8.938;2022-10-19T10:32:57;19.33;;;17.83;;
7587;SDS011;3835;48.850;8.938;2022-10-19T10:35:27;23.00;;;21.50;;
7587;SDS011;3835;48.850;8.938;2022-10-19T10:38:05;21.47;;;20.07;;
7587;SDS011;3835;48.850;8.938;2022-10-19T10:40:34;19.90;;;18.33;;
7587;SDS011;3835;48.850;8.938;2022-10-19T10:43:03;21.20;;;19.10;;
7587;SDS011;3835;48.850;8.938;2022-10-19T10:45:33;20.40;;;18.97;;
7587;SDS011;3835;48.850;8.938;2022-10-19T10:48:13;19.13;;;17.63;;
7587;SDS011;3835;48.850;8.938;2022-10-19T10:50:46;18.57;;;17.30;;
7587;SDS011;3835;48.850;8.938;2022-10-19T10:56:02;16.53;;;15.27;;
7587;SDS011;3835;48.850;8.938;2022-10-19T10:58:33;18.00;;;16.77;;
7587;SDS011;3835;48.850;8.938;2022-10-19T11:01:06;18.03;;;16.63;;
7587;SDS011;3835;48.850;8.938;2022-10-19T11:03:42;17.23;;;16.17;;
7587;SDS011;3835;48.850;8.938;2022-10-19T11:06:16;19.50;;;18.20;;
7587;SDS011;3835;48.850;8.938;2022-10-19T11:08:47;19.10;;;17.87;;
7587;SDS011;3835;48.850;8.938;2022-10-19T11:11:21;16.67;;;15.57;;
7587;SDS011;3835;48.850;8.938;2022-10-19T11:13:52;18.57;;;17.57;;
7587;SDS011;3835;48.850;8.938;2022-10-19T11:16:26;18.67;;;17.63;;
7587;SDS011;3835;48.850;8.938;2022-10-19T11:18:59;24.10;;;22.83;;
7587;SDS011;3835;48.850;8.938;2022-10-19T11:21:35;20.77;;;19.47;;
7587;SDS011;3835;48.850;8.938;2022-10-19T11:24:08;16.30;;;15.33;;
7587;SDS011;3835;48.850;8.938;2022-10-19T11:26:52;16.27;;;15.27;;
7587;SDS011;3835;48.850;8.938;2022-10-19T11:29:34;16.20;;;15.33;;
7587;SDS011;3835;48.850;8.938;2022-10-19T11:32:13;16.07;;;15.10;;
7587;SDS011;3835;48.850;8.938;2022-10-19T11:34:53;15.17;;;14.27;;
7587;SDS011;3835;48.850;8.938;2022-10-19T11:37:32;18.23;;;17.23;;
7587;SDS011;3835;48.850;8.938;2022-10-19T11:40:10;14.47;;;13.67;;
7587;SDS011;3835;48.850;8.938;2022-10-19T11:42:49;17.23;;;16.33;;
7587;SDS011;3835;48.850;8.938;2022-10-19T11:45:25;17.63;;;16.50;;
7587;SDS011;3835;48.850;8.938;2022-10-19T11:48:04;18.03;;;17.13;;
7587;SDS011;3835;48.850;8.938;2022-10-19T11:50:48;14.43;;;13.67;;
7587;SDS011;3835;48.850;8.938;2022-10-19T11:53:23;17.03;;;16.13;;
7587;SDS011;3835;48.850;8.938;2022-10-19T11:55:58;16.73;;;15.83;;
7587;SDS011;3835;48.850;8.938;2022-10-19T11:58:43;16.03;;;15.07;;
7587;SDS011;3835;48.850;8.938;2022-10-19T12:01:19;14.90;;;14.00;;
7587;SDS011;3835;48.850;8.938;2022-10-19T12:06:57;15.60;;;14.77;;
7587;SDS011;3835;48.850;8.938;2022-10-19T12:09:34;13.33;;;12.67;;
7587;SDS011;3835;48.850;8.938;2022-10-19T12:12:13;16.37;;;15.50;;
7587;SDS011;3835;48.850;8.938;2022-10-19T12:14:56;15.40;;;14.60;;
7587;SDS011;3835;48.850;8.938;2022-10-19T12:17:29;15.63;;;14.90;;
7587;SDS011;3835;48.850;8.938;2022-10-19T12:20:01;16.10;;;15.23;;
7587;SDS011;3835;48.850;8.938;2022-10-19T12:22:31;15.10;;;14.37;;
7587;SDS011;3835;48.850;8.938;2022-10-19T12:25:03;16.50;;;15.40;;
7587;SDS011;3835;48.850;8.938;2022-10-19T12:27:31;16.83;;;15.73;;
7587;SDS011;3835;48.850;8.938;2022-10-19T12:30:02;15.10;;;14.20;;
7587;SDS011;3835;48.850;8.938;2022-10-19T12:32:32;16.87;;;16.00;;
7587;SDS011;3835;48.850;8.938;2022-10-19T12:35:14;22.17;;;20.83;;
7587;SDS011;3835;48.850;8.938;2022-10-19T12:37:50;21.47;;;20.47;;
7587;SDS011;3835;48.850;8.938;2022-10-19T12:40:24;18.87;;;17.87;;
7587;SDS011;3835;48.850;8.938;2022-10-19T12:42:58;21.10;;;19.90;;
7587;SDS011;3835;48.850;8.938;2022-10-19T12:45:30;16.17;;;15.37;;
7587;SDS011;3835;48.850;8.938;2022-10-19T12:48:14;20.00;;;18.67;;
7587;SDS011;3835;48.850;8.938;2022-10-19T12:53:30;12.80;;;12.00;;
7587;SDS011;3835;48.850;8.938;2022-10-19T12:56:02;16.00;;;15.00;;
7587;SDS011;3835;48.850;8.938;2022-10-19T12:58:32;15.67;;;14.87;;
7587;SDS011;3835;48.850;8.938;2022-10-19T13:01:03;13.50;;;12.80;;
7587;SDS011;3835;48.850;8.938;2022-10-19T13:03:32;14.70;;;13.90;;
7587;SDS011;3835;48.850;8.938;2022-10-19T13:06:01;17.87;;;16.97;;
7587;SDS011;3835;48.850;8.938;2022-10-19T13:08:36;13.17;;;12.33;;
7587;SDS011;3835;48.850;8.938;2022-10-19T13:11:09;13.03;;;12.30;;
7587;SDS011;3835;48.850;8.938;2022-10-19T13:13:52;14.10;;;13.10;;
7587;SDS011;3835;48.850;8.938;2022-10-19T13:16:31;16.90;;;15.90;;
7587;SDS011;3835;48.850;8.938;2022-10-19T13:19:18;14.83;;;14.03;;
7587;SDS011;3835;48.850;8.938;2022-10-19T13:21:50;16.13;;;15.17;;
7587;SDS011;3835;48.850;8.938;2022-10-19T13:24:35;16.17;;;15.37;;
7587;SDS011;3835;48.850;8.938;2022-10-19T13:30:04;16.37;;;15.50;;
7587;SDS011;3835;48.850;8.938;2022-10-19T13:32:53;13.40;;;12.70;;
7587;SDS011;3835;48.850;8.938;2022-10-19T13:35:23;17.83;;;16.93;;
7587;SDS011;3835;48.850;8.938;2022-10-19T13:40:55;15.27;;;14.37;;
7587;SDS011;3835;48.850;8.938;2022-10-19T13:43:29;14.77;;;13.93;;
7587;SDS011;3835;48.850;8.938;2022-10-19T13:46:02;13.33;;;12.63;;
7587;SDS011;3835;48.850;8.938;2022-10-19T13:48:36;14.07;;;12.83;;
7587;SDS011;3835;48.850;8.938;2022-10-19T13:51:25;23.30;;;22.10;;
7587;SDS011;3835;48.850;8.938;2022-10-19T13:53:59;15.23;;;14.40;;
7587;SDS011;3835;48.850;8.938;2022-10-19T13:56:43;15.97;;;15.13;;
7587;SDS011;3835;48.850;8.938;2022-10-19T14:02:30;16.83;;;15.93;;
7587;SDS011;3835;48.850;8.938;2022-10-19T14:05:20;14.27;;;13.57;;
7587;SDS011;3835;48.850;8.938;2022-10-19T14:08:07;18.37;;;17.33;;
7587;SDS011;3835;48.850;8.938;2022-10-19T14:10:42;17.73;;;16.73;;
7587;SDS011;3835;48.850;8.938;2022-10-19T14:13:14;15.33;;;14.53;;
7587;SDS011;3835;48.850;8.938;2022-10-19T14:15:49;13.83;;;13.03;;
7587;SDS011;3835;48.850;8.938;2022-10-19T14:18:21;14.50;;;13.70;;
7587;SDS011;3835;48.850;8.938;2022-10-19T14:20:57;18.83;;;17.77;;
7587;SDS011;3835;48.850;8.938;2022-10-19T14:23:26;20.20;;;19.20;;
7587;SDS011;3835;48.850;8.938;2022-10-19T14:25:54;16.90;;;15.63;;
7587;SDS011;3835;48.850;8.938;2022-10-19T14:28:23;20.80;;;19.43;;
7587;SDS011;3835;48.850;8.938;2022-10-19T14:30:56;18.93;;;17.67;;
7587;SDS011;3835;48.850;8.938;2022-10-19T14:33:24;20.93;;;19.83;;
7587;SDS011;3835;48.850;8.938;2022-10-19T14:35:53;17.20;;;16.40;;
7587;SDS011;3835;48.850;8.938;2022-10-19T14:38:22;17.43;;;16.53;;
7587;SDS011;3835;48.850;8.938;2022-10-19T14:40:53;16.67;;;15.77;;
7587;SDS011;3835;48.850;8.938;2022-10-19T14:43:21;16.90;;;16.10;;
7587;SDS011;3835;48.850;8.938;2022-10-19T14:46:08;16.80;;;15.90;;
7587;SDS011;3835;48.850;8.938;2022-10-19T14:48:37;18.70;;;17.70;;
7587;SDS011;3835;48.850;8.938;2022-10-19T14:51:07;18.20;;;17.30;;
7587;SDS011;3835;48.850;8.938;2022-10-19T14:53:43;18.70;;;17.80;;
7587;SDS011;3835;48.850;8.938;2022-10-19T14:56:15;15.83;;;15.00;;
7587;SDS011;3835;48.850;8.938;2022-10-19T14:58:47;16.47;;;15.67;;
7587;SDS011;3835;48.850;8.938;2022-10-19T15:01:19;18.40;;;17.50;;
7587;SDS011;3835;48.850;8.938;2022-10-19T15:03:46;16.80;;;16.00;;
7587;SDS011;3835;48.850;8.938;2022-10-19T15:06:15;15.60;;;14.80;;
7587;SDS011;3835;48.850;8.938;2022-10-19T15:08:44;20.73;;;19.77;;
7587;SDS011;3835;48.850;8.938;2022-10-19T15:11:23;20.23;;;19.23;;
7587;SDS011;3835;48.850;8.938;2022-10-19T15:13:54;16.73;;;15.83;;
7587;SDS011;3835;48.850;8.938;2022-10-19T15:16:33;14.03;;;13.13;;
7587;SDS011;3835;48.850;8.938;2022-10-19T15:19:13;21.10;;;20.00;;
7587;SDS011;3835;48.850;8.938;2022-10-19T15:21:43;23.10;;;21.93;;
7587;SDS011;3835;48.850;8.938;2022-10-19T15:24:18;25.20;;;24.03;;
7587;SDS011;3835;48.850;8.938;2022-10-19T15:26:49;14.60;;;13.90;;
7587;SDS011;3835;48.850;8.938;2022-10-19T15:29:19;16.93;;;16.03;;
7587;SDS011;3835;48.850;8.938;2022-10-19T15:31:48;18.57;;;17.67;;
7587;SDS011;3835;48.850;8.938;2022-10-19T15:34:21;16.90;;;16.00;;